PWSweather.com
Personal Weather Stations
Station Observations
KFLSTJOH36
Aberdeen Highland Point, Saint Johns, FL 32259

Aberdeen Highland PointSaint Johns, FL 32259

Lat: 30.082981, Lon: -81.59522

Elevation: 60

Station Type: Acurite 5-in-1 Weather Sensor

High Low Average
Temperature 86.7°F30.4°C 71.6°F22.0°C 77.1°F25.1°C
Dew Point 72.7°F22.6°C 66.4°F19.1°C 69.9°F21.1°C
Winds 16.0 mph 25.7 kmh Calm Calm 5.0 mph ENE8.0 kmh ENE
Wind Gusts -- -- --
Humidity 94% 57% 80%
Pressure 30.23 in1023.7 mb 30.12 in1020.0 mb -
Precipitation 0.50 in12.7 mm - -
Hour Temp Dew Point Humidity Winds Wind Gusts Pressure Precip Precip Rate Daily Precip Total
12:00 AM 74.1°F23.4°C 70.7°F21.5°C 89% Calm Calm -- 30.16 in1021.3 mb 0.00 in0.0 mm 0.00 in0.0 mm 0.00 in0.0 mm
12:25 AM 74.7°F23.7°C 70.2°F21.2°C 86% Calm Calm -- 30.16 in1021.3 mb 0.00 in0.0 mm 0.00 in0.0 mm 0.00 in0.0 mm
12:30 AM 74.7°F23.7°C 70.2°F21.2°C 86% Calm Calm -- 30.16 in1021.3 mb 0.00 in0.0 mm 0.00 in0.0 mm 0.00 in0.0 mm
12:45 AM 74.7°F23.7°C 70.2°F21.2°C 86% 3.0 mph ENE4.8 kmh ENE -- 30.15 in1021.0 mb 0.00 in0.0 mm 0.00 in0.0 mm 0.00 in0.0 mm
12:50 AM 74.7°F23.7°C 70.2°F21.2°C 86% 2.0 mph NNE3.2 kmh NNE -- 30.15 in1021.0 mb 0.00 in0.0 mm 0.00 in0.0 mm 0.00 in0.0 mm
01:15 AM 73.9°F23.3°C 70.5°F21.4°C 89% Calm Calm -- 30.15 in1021.0 mb 0.00 in0.0 mm 0.00 in0.0 mm 0.00 in0.0 mm
01:20 AM 73.9°F23.3°C 70.1°F21.2°C 88% Calm Calm -- 30.14 in1020.7 mb 0.00 in0.0 mm 0.00 in0.0 mm 0.00 in0.0 mm
01:45 AM 73.4°F23.0°C 69.9°F21.1°C 89% Calm Calm -- 30.14 in1020.7 mb 0.00 in0.0 mm 0.00 in0.0 mm 0.00 in0.0 mm
02:00 AM 73.4°F23.0°C 69.9°F21.1°C 89% 5.0 mph ESE8.0 kmh ESE -- 30.14 in1020.7 mb 0.00 in0.0 mm 0.00 in0.0 mm 0.00 in0.0 mm
02:05 AM 73.4°F23.0°C 69.9°F21.1°C 89% 4.0 mph E6.4 kmh E -- 30.14 in1020.7 mb 0.00 in0.0 mm 0.00 in0.0 mm 0.00 in0.0 mm
02:10 AM 74.1°F23.4°C 70.3°F21.3°C 88% 2.0 mph ENE3.2 kmh ENE -- 30.14 in1020.7 mb 0.00 in0.0 mm 0.00 in0.0 mm 0.00 in0.0 mm
02:15 AM 74.3°F23.5°C 70.5°F21.4°C 88% 5.0 mph 8.0 kmh -- 30.14 in1020.7 mb 0.00 in0.0 mm 0.00 in0.0 mm 0.00 in0.0 mm
02:25 AM 74.5°F23.6°C 70.7°F21.5°C 88% 1.0 mph NE1.6 kmh NE -- 30.13 in1020.3 mb 0.00 in0.0 mm 0.00 in0.0 mm 0.00 in0.0 mm
02:30 AM 74.5°F23.6°C 70.7°F21.5°C 88% 2.0 mph E3.2 kmh E -- 30.13 in1020.3 mb 0.00 in0.0 mm 0.00 in0.0 mm 0.00 in0.0 mm
02:35 AM 74.7°F23.7°C 70.9°F21.6°C 88% 1.0 mph NNE1.6 kmh NNE -- 30.13 in1020.3 mb 0.00 in0.0 mm 0.00 in0.0 mm 0.00 in0.0 mm
02:40 AM 74.7°F23.7°C 70.9°F21.6°C 88% 2.0 mph ENE3.2 kmh ENE -- 30.13 in1020.3 mb 0.00 in0.0 mm 0.00 in0.0 mm 0.00 in0.0 mm
02:45 AM 74.8°F23.8°C 71.0°F21.7°C 88% 2.0 mph NE3.2 kmh NE -- 30.13 in1020.3 mb 0.00 in0.0 mm 0.00 in0.0 mm 0.00 in0.0 mm
02:50 AM 74.8°F23.8°C 71.0°F21.7°C 88% 3.0 mph ENE4.8 kmh ENE -- 30.13 in1020.3 mb 0.00 in0.0 mm 0.00 in0.0 mm 0.00 in0.0 mm
02:55 AM 75.0°F23.9°C 70.9°F21.6°C 87% 1.0 mph NE1.6 kmh NE -- 30.13 in1020.3 mb 0.00 in0.0 mm 0.00 in0.0 mm 0.00 in0.0 mm
03:00 AM 75.2°F24.0°C 70.4°F21.3°C 85% 4.0 mph E6.4 kmh E -- 30.12 in1020.0 mb 0.00 in0.0 mm 0.00 in0.0 mm 0.00 in0.0 mm
03:05 AM 75.4°F24.1°C 70.2°F21.2°C 84% 2.0 mph NE3.2 kmh NE -- 30.13 in1020.3 mb 0.00 in0.0 mm 0.00 in0.0 mm 0.00 in0.0 mm
03:10 AM 75.4°F24.1°C 69.8°F21.0°C 83% 4.0 mph E6.4 kmh E -- 30.13 in1020.3 mb 0.00 in0.0 mm 0.00 in0.0 mm 0.00 in0.0 mm
03:15 AM 75.7°F24.3°C 69.5°F20.8°C 81% 4.0 mph E6.4 kmh E -- 30.12 in1020.0 mb 0.00 in0.0 mm 0.00 in0.0 mm 0.00 in0.0 mm
03:20 AM 75.7°F24.3°C 69.5°F20.8°C 81% 4.0 mph ENE6.4 kmh ENE -- 30.12 in1020.0 mb 0.00 in0.0 mm 0.00 in0.0 mm 0.00 in0.0 mm
03:25 AM 75.7°F24.3°C 69.5°F20.8°C 81% 4.0 mph NNE6.4 kmh NNE -- 30.12 in1020.0 mb 0.00 in0.0 mm 0.00 in0.0 mm 0.00 in0.0 mm
03:35 AM 75.9°F24.4°C 68.2°F20.1°C 77% 6.0 mph NNE9.7 kmh NNE -- 30.13 in1020.3 mb 0.00 in0.0 mm 0.00 in0.0 mm 0.00 in0.0 mm
03:40 AM 75.9°F24.4°C 68.2°F20.1°C 77% 3.0 mph ESE4.8 kmh ESE -- 30.12 in1020.0 mb 0.00 in0.0 mm 0.00 in0.0 mm 0.00 in0.0 mm
03:45 AM 75.7°F24.3°C 68.0°F20.0°C 77% 4.0 mph NE6.4 kmh NE -- 30.12 in1020.0 mb 0.00 in0.0 mm 0.00 in0.0 mm 0.00 in0.0 mm
03:50 AM 75.7°F24.3°C 68.0°F20.0°C 77% 3.0 mph ESE4.8 kmh ESE -- 30.12 in1020.0 mb 0.00 in0.0 mm 0.00 in0.0 mm 0.00 in0.0 mm
03:55 AM 75.6°F24.2°C 67.4°F19.7°C 76% 2.0 mph ENE3.2 kmh ENE -- 30.12 in1020.0 mb 0.00 in0.0 mm 0.00 in0.0 mm 0.00 in0.0 mm
04:00 AM 75.6°F24.2°C 67.4°F19.7°C 76% 3.0 mph E4.8 kmh E -- 30.12 in1020.0 mb 0.00 in0.0 mm 0.00 in0.0 mm 0.00 in0.0 mm
04:05 AM 75.6°F24.2°C 67.4°F19.7°C 76% 4.0 mph ENE6.4 kmh ENE -- 30.12 in1020.0 mb 0.00 in0.0 mm 0.00 in0.0 mm 0.00 in0.0 mm
04:10 AM 75.6°F24.2°C 67.4°F19.7°C 76% 1.0 mph NE1.6 kmh NE -- 30.12 in1020.0 mb 0.00 in0.0 mm 0.00 in0.0 mm 0.00 in0.0 mm
04:15 AM 75.4°F24.1°C 67.3°F19.6°C 76% 1.0 mph NNE1.6 kmh NNE -- 30.12 in1020.0 mb 0.00 in0.0 mm 0.00 in0.0 mm 0.00 in0.0 mm
04:20 AM 75.2°F24.0°C 67.1°F19.5°C 76% 1.0 mph NE1.6 kmh NE -- 30.12 in1020.0 mb 0.00 in0.0 mm 0.00 in0.0 mm 0.00 in0.0 mm
04:25 AM 75.2°F24.0°C 67.1°F19.5°C 76% 2.0 mph NNE3.2 kmh NNE -- 30.12 in1020.0 mb 0.00 in0.0 mm 0.00 in0.0 mm 0.00 in0.0 mm
04:30 AM 75.0°F23.9°C 67.3°F19.6°C 77% Calm Calm -- 30.12 in1020.0 mb 0.00 in0.0 mm 0.00 in0.0 mm 0.00 in0.0 mm
04:35 AM 75.0°F23.9°C 67.7°F19.8°C 78% 2.0 mph ENE3.2 kmh ENE -- 30.12 in1020.0 mb 0.00 in0.0 mm 0.00 in0.0 mm 0.00 in0.0 mm
04:40 AM 74.8°F23.8°C 68.2°F20.1°C 80% Calm Calm -- 30.13 in1020.3 mb 0.00 in0.0 mm 0.00 in0.0 mm 0.00 in0.0 mm
04:45 AM 75.0°F23.9°C 67.7°F19.8°C 78% 1.0 mph NNE1.6 kmh NNE -- 30.13 in1020.3 mb 0.00 in0.0 mm 0.00 in0.0 mm 0.00 in0.0 mm
04:50 AM 75.2°F24.0°C 67.8°F19.9°C 78% Calm Calm -- 30.13 in1020.3 mb 0.00 in0.0 mm 0.00 in0.0 mm 0.00 in0.0 mm
04:55 AM 75.4°F24.1°C 66.9°F19.4°C 75% 2.0 mph E3.2 kmh E -- 30.13 in1020.3 mb 0.00 in0.0 mm 0.00 in0.0 mm 0.00 in0.0 mm
05:00 AM 75.7°F24.3°C 66.4°F19.1°C 73% 5.0 mph ENE8.0 kmh ENE -- 30.13 in1020.3 mb 0.00 in0.0 mm 0.00 in0.0 mm 0.00 in0.0 mm
05:05 AM 76.1°F24.5°C 66.8°F19.3°C 73% Calm Calm -- 30.13 in1020.3 mb 0.00 in0.0 mm 0.00 in0.0 mm 0.00 in0.0 mm
05:10 AM 76.1°F24.5°C 66.8°F19.3°C 73% 2.0 mph ENE3.2 kmh ENE -- 30.13 in1020.3 mb 0.00 in0.0 mm 0.00 in0.0 mm 0.00 in0.0 mm
05:15 AM 76.3°F24.6°C 67.0°F19.4°C 73% 2.0 mph NE3.2 kmh NE -- 30.14 in1020.7 mb 0.00 in0.0 mm 0.00 in0.0 mm 0.00 in0.0 mm
05:25 AM 76.1°F24.5°C 66.8°F19.3°C 73% 6.0 mph ENE9.7 kmh ENE -- 30.15 in1021.0 mb 0.00 in0.0 mm 0.00 in0.0 mm 0.00 in0.0 mm
05:30 AM 76.1°F24.5°C 67.2°F19.6°C 74% 1.0 mph NE1.6 kmh NE -- 30.14 in1020.7 mb 0.00 in0.0 mm 0.00 in0.0 mm 0.00 in0.0 mm
05:35 AM 76.5°F24.7°C 67.9°F19.9°C 75% 2.0 mph ENE3.2 kmh ENE -- 30.14 in1020.7 mb 0.00 in0.0 mm 0.00 in0.0 mm 0.00 in0.0 mm
05:40 AM 76.6°F24.8°C 68.1°F20.1°C 75% 2.0 mph ENE3.2 kmh ENE -- 30.14 in1020.7 mb 0.00 in0.0 mm 0.00 in0.0 mm 0.00 in0.0 mm
05:45 AM 76.5°F24.7°C 68.3°F20.2°C 76% 3.0 mph ENE4.8 kmh ENE -- 30.15 in1021.0 mb 0.00 in0.0 mm 0.00 in0.0 mm 0.00 in0.0 mm
05:50 AM 76.5°F24.7°C 68.3°F20.2°C 76% 3.0 mph ENE4.8 kmh ENE -- 30.14 in1020.7 mb 0.00 in0.0 mm 0.00 in0.0 mm 0.00 in0.0 mm
05:55 AM 76.5°F24.7°C 68.3°F20.2°C 76% 1.0 mph NE1.6 kmh NE -- 30.14 in1020.7 mb 0.00 in0.0 mm 0.00 in0.0 mm 0.00 in0.0 mm
06:00 AM 76.3°F24.6°C 68.5°F20.3°C 77% 3.0 mph NE4.8 kmh NE -- 30.15 in1021.0 mb 0.00 in0.0 mm 0.00 in0.0 mm 0.00 in0.0 mm
06:05 AM 76.1°F24.5°C 68.0°F20.0°C 76% 1.0 mph NE1.6 kmh NE -- 30.15 in1021.0 mb 0.00 in0.0 mm 0.00 in0.0 mm 0.00 in0.0 mm
06:10 AM 75.9°F24.4°C 68.5°F20.3°C 78% Calm Calm -- 30.15 in1021.0 mb 0.00 in0.0 mm 0.00 in0.0 mm 0.00 in0.0 mm
06:15 AM 75.7°F24.3°C 69.5°F20.8°C 81% Calm Calm -- 30.15 in1021.0 mb 0.00 in0.0 mm 0.00 in0.0 mm 0.00 in0.0 mm
06:20 AM 75.2°F24.0°C 68.9°F20.5°C 81% Calm Calm -- 30.15 in1021.0 mb 0.00 in0.0 mm 0.00 in0.0 mm 0.00 in0.0 mm
06:25 AM 74.8°F23.8°C 69.0°F20.6°C 82% Calm Calm -- 30.16 in1021.3 mb 0.00 in0.0 mm 0.00 in0.0 mm 0.00 in0.0 mm
06:30 AM 74.5°F23.6°C 68.6°F20.3°C 82% Calm Calm -- 30.16 in1021.3 mb 0.00 in0.0 mm 0.00 in0.0 mm 0.00 in0.0 mm
07:45 AM 74.5°F23.6°C 68.6°F20.3°C 82% 1.0 mph NE1.6 kmh NE -- 30.17 in1021.7 mb 0.00 in0.0 mm 0.00 in0.0 mm 0.00 in0.0 mm
07:50 AM 80.6°F27.0°C 70.7°F21.5°C 72% 2.0 mph NNE3.2 kmh NNE -- 30.17 in1021.7 mb 0.00 in0.0 mm 0.00 in0.0 mm 0.00 in0.0 mm
07:55 AM 79.9°F26.6°C 70.4°F21.3°C 73% 4.0 mph NE6.4 kmh NE -- 30.17 in1021.7 mb 0.00 in0.0 mm 0.00 in0.0 mm 0.00 in0.0 mm
08:00 AM 78.8°F26.0°C 70.2°F21.2°C 75% 4.0 mph ENE6.4 kmh ENE -- 30.17 in1021.7 mb 0.00 in0.0 mm 0.00 in0.0 mm 0.00 in0.0 mm
08:05 AM 77.9°F25.5°C 70.1°F21.2°C 77% 2.0 mph NNE3.2 kmh NNE -- 30.17 in1021.7 mb 0.00 in0.0 mm 0.00 in0.0 mm 0.00 in0.0 mm
08:10 AM 77.9°F25.5°C 70.1°F21.2°C 77% 3.0 mph ENE4.8 kmh ENE -- 30.17 in1021.7 mb 0.00 in0.0 mm 0.00 in0.0 mm 0.00 in0.0 mm
08:15 AM 78.3°F25.7°C 70.4°F21.3°C 77% 4.0 mph E6.4 kmh E -- 30.18 in1022.0 mb 0.00 in0.0 mm 0.00 in0.0 mm 0.00 in0.0 mm
08:20 AM 79.2°F26.2°C 71.3°F21.8°C 77% 3.0 mph ENE4.8 kmh ENE -- 30.18 in1022.0 mb 0.00 in0.0 mm 0.00 in0.0 mm 0.00 in0.0 mm
08:25 AM 80.1°F26.7°C 71.4°F21.9°C 75% 2.0 mph NE3.2 kmh NE -- 30.18 in1022.0 mb 0.00 in0.0 mm 0.00 in0.0 mm 0.00 in0.0 mm
08:30 AM 80.8°F27.1°C 70.9°F21.6°C 72% 2.0 mph ENE3.2 kmh ENE -- 30.18 in1022.0 mb 0.00 in0.0 mm 0.00 in0.0 mm 0.00 in0.0 mm
08:35 AM 81.3°F27.4°C 70.6°F21.4°C 70% 6.0 mph E9.7 kmh E -- 30.18 in1022.0 mb 0.00 in0.0 mm 0.00 in0.0 mm 0.00 in0.0 mm
08:40 AM 82.4°F28.0°C 70.3°F21.3°C 67% 8.0 mph E12.9 kmh E -- 30.18 in1022.0 mb 0.00 in0.0 mm 0.00 in0.0 mm 0.00 in0.0 mm
08:45 AM 82.0°F27.8°C 70.4°F21.3°C 68% 6.0 mph ESE9.7 kmh ESE -- 30.18 in1022.0 mb 0.00 in0.0 mm 0.00 in0.0 mm 0.00 in0.0 mm
08:50 AM 82.6°F28.1°C 70.5°F21.4°C 67% 9.0 mph NNE14.5 kmh NNE -- 30.18 in1022.0 mb 0.00 in0.0 mm 0.00 in0.0 mm 0.00 in0.0 mm
08:55 AM 82.9°F28.3°C 70.0°F21.1°C 65% 6.0 mph NE9.7 kmh NE -- 30.18 in1022.0 mb 0.00 in0.0 mm 0.00 in0.0 mm 0.00 in0.0 mm
09:00 AM 82.8°F28.2°C 69.3°F20.7°C 64% 6.0 mph NNW9.7 kmh NNW -- 30.18 in1022.0 mb 0.00 in0.0 mm 0.00 in0.0 mm 0.00 in0.0 mm
09:05 AM 83.5°F28.6°C 69.6°F20.9°C 63% 6.0 mph ENE9.7 kmh ENE -- 30.19 in1022.4 mb 0.00 in0.0 mm 0.00 in0.0 mm 0.00 in0.0 mm
09:10 AM 83.1°F28.4°C 69.7°F20.9°C 64% 4.0 mph NNE6.4 kmh NNE -- 30.19 in1022.4 mb 0.00 in0.0 mm 0.00 in0.0 mm 0.00 in0.0 mm
09:15 AM 82.4°F28.0°C 68.5°F20.3°C 63% 5.0 mph NE8.0 kmh NE -- 30.19 in1022.4 mb 0.00 in0.0 mm 0.00 in0.0 mm 0.00 in0.0 mm
09:20 AM 83.1°F28.4°C 69.2°F20.7°C 63% 7.0 mph ENE11.3 kmh ENE -- 30.19 in1022.4 mb 0.00 in0.0 mm 0.00 in0.0 mm 0.00 in0.0 mm
09:25 AM 82.9°F28.3°C 69.5°F20.8°C 64% 8.0 mph ENE12.9 kmh ENE -- 30.19 in1022.4 mb 0.00 in0.0 mm 0.00 in0.0 mm 0.00 in0.0 mm
09:30 AM 83.5°F28.6°C 69.6°F20.9°C 63% 4.0 mph NE6.4 kmh NE -- 30.19 in1022.4 mb 0.00 in0.0 mm 0.00 in0.0 mm 0.00 in0.0 mm
09:35 AM 83.7°F28.7°C 69.3°F20.7°C 62% 5.0 mph NE8.0 kmh NE -- 30.19 in1022.4 mb 0.00 in0.0 mm 0.00 in0.0 mm 0.00 in0.0 mm
09:40 AM 82.9°F28.3°C 68.1°F20.1°C 61% 6.0 mph NNE9.7 kmh NNE -- 30.19 in1022.4 mb 0.00 in0.0 mm 0.00 in0.0 mm 0.00 in0.0 mm
09:45 AM 82.0°F27.8°C 68.7°F20.4°C 64% 4.0 mph NE6.4 kmh NE -- 30.19 in1022.4 mb 0.00 in0.0 mm 0.00 in0.0 mm 0.00 in0.0 mm
09:50 AM 83.8°F28.8°C 69.0°F20.6°C 61% 12.0 mph ENE19.3 kmh ENE -- 30.19 in1022.4 mb 0.00 in0.0 mm 0.00 in0.0 mm 0.00 in0.0 mm
09:55 AM 82.8°F28.2°C 68.9°F20.5°C 63% 6.0 mph ENE9.7 kmh ENE -- 30.20 in1022.7 mb 0.00 in0.0 mm 0.00 in0.0 mm 0.00 in0.0 mm
10:00 AM 82.9°F28.3°C 68.6°F20.3°C 62% 6.0 mph ENE9.7 kmh ENE -- 30.20 in1022.7 mb 0.00 in0.0 mm 0.00 in0.0 mm 0.00 in0.0 mm
10:05 AM 84.0°F28.9°C 68.7°F20.4°C 60% 12.0 mph NE19.3 kmh NE -- 30.19 in1022.4 mb 0.00 in0.0 mm 0.00 in0.0 mm 0.00 in0.0 mm
10:10 AM 84.2°F29.0°C 69.3°F20.7°C 61% 4.0 mph 6.4 kmh -- 30.20 in1022.7 mb 0.00 in0.0 mm 0.00 in0.0 mm 0.00 in0.0 mm
10:15 AM 83.1°F28.4°C 68.3°F20.2°C 61% 4.0 mph NE6.4 kmh NE -- 30.20 in1022.7 mb 0.00 in0.0 mm 0.00 in0.0 mm 0.00 in0.0 mm
10:20 AM 83.1°F28.4°C 68.8°F20.4°C 62% 7.0 mph ENE11.3 kmh ENE -- 30.20 in1022.7 mb 0.00 in0.0 mm 0.00 in0.0 mm 0.00 in0.0 mm
10:25 AM 83.8°F28.8°C 69.0°F20.6°C 61% 9.0 mph NE14.5 kmh NE -- 30.20 in1022.7 mb 0.00 in0.0 mm 0.00 in0.0 mm 0.00 in0.0 mm
10:30 AM 83.3°F28.5°C 68.9°F20.5°C 62% 5.0 mph NE8.0 kmh NE -- 30.20 in1022.7 mb 0.00 in0.0 mm 0.00 in0.0 mm 0.00 in0.0 mm
10:35 AM 83.1°F28.4°C 69.2°F20.7°C 63% 11.0 mph ESE17.7 kmh ESE -- 30.20 in1022.7 mb 0.00 in0.0 mm 0.00 in0.0 mm 0.00 in0.0 mm
10:40 AM 82.9°F28.3°C 69.1°F20.6°C 63% 4.0 mph ENE6.4 kmh ENE -- 30.20 in1022.7 mb 0.00 in0.0 mm 0.00 in0.0 mm 0.00 in0.0 mm
10:45 AM 82.8°F28.2°C 67.9°F19.9°C 61% 3.0 mph NNW4.8 kmh NNW -- 30.20 in1022.7 mb 0.00 in0.0 mm 0.00 in0.0 mm 0.00 in0.0 mm
10:50 AM 82.8°F28.2°C 68.4°F20.2°C 62% 6.0 mph NE9.7 kmh NE -- 30.20 in1022.7 mb 0.00 in0.0 mm 0.00 in0.0 mm 0.00 in0.0 mm
10:55 AM 83.7°F28.7°C 68.8°F20.4°C 61% 5.0 mph ENE8.0 kmh ENE -- 30.20 in1022.7 mb 0.00 in0.0 mm 0.00 in0.0 mm 0.00 in0.0 mm
11:00 AM 83.1°F28.4°C 68.8°F20.4°C 62% 6.0 mph NE9.7 kmh NE -- 30.20 in1022.7 mb 0.00 in0.0 mm 0.00 in0.0 mm 0.00 in0.0 mm
11:05 AM 83.7°F28.7°C 69.3°F20.7°C 62% 10.0 mph ENE16.1 kmh ENE -- 30.20 in1022.7 mb 0.00 in0.0 mm 0.00 in0.0 mm 0.00 in0.0 mm
11:10 AM 85.1°F29.5°C 70.2°F21.2°C 61% 6.0 mph ESE9.7 kmh ESE -- 30.20 in1022.7 mb 0.00 in0.0 mm 0.00 in0.0 mm 0.00 in0.0 mm
11:15 AM 85.1°F29.5°C 68.7°F20.4°C 58% 9.0 mph E14.5 kmh E -- 30.20 in1022.7 mb 0.00 in0.0 mm 0.00 in0.0 mm 0.00 in0.0 mm
11:20 AM 83.5°F28.6°C 69.1°F20.6°C 62% 8.0 mph 12.9 kmh -- 30.20 in1022.7 mb 0.00 in0.0 mm 0.00 in0.0 mm 0.00 in0.0 mm
11:25 AM 84.7°F29.3°C 70.3°F21.3°C 62% 11.0 mph ENE17.7 kmh ENE -- 30.20 in1022.7 mb 0.00 in0.0 mm 0.00 in0.0 mm 0.00 in0.0 mm
11:30 AM 84.7°F29.3°C 69.3°F20.7°C 60% 13.0 mph ENE20.9 kmh ENE -- 30.20 in1022.7 mb 0.00 in0.0 mm 0.00 in0.0 mm 0.00 in0.0 mm
11:35 AM 85.1°F29.5°C 70.2°F21.2°C 61% 8.0 mph E12.9 kmh E -- 30.19 in1022.4 mb 0.00 in0.0 mm 0.00 in0.0 mm 0.00 in0.0 mm
11:40 AM 84.2°F29.0°C 69.8°F21.0°C 62% 4.0 mph NNE6.4 kmh NNE -- 30.19 in1022.4 mb 0.00 in0.0 mm 0.00 in0.0 mm 0.00 in0.0 mm
11:45 AM 83.7°F28.7°C 69.3°F20.7°C 62% 9.0 mph E14.5 kmh E -- 30.19 in1022.4 mb 0.00 in0.0 mm 0.00 in0.0 mm 0.00 in0.0 mm
11:50 AM 83.8°F28.8°C 69.4°F20.8°C 62% 10.0 mph E16.1 kmh E -- 30.19 in1022.4 mb 0.00 in0.0 mm 0.00 in0.0 mm 0.00 in0.0 mm
11:55 AM 85.1°F29.5°C 69.2°F20.7°C 59% 6.0 mph ENE9.7 kmh ENE -- 30.19 in1022.4 mb 0.00 in0.0 mm 0.00 in0.0 mm 0.00 in0.0 mm
12:00 PM 84.2°F29.0°C 68.3°F20.2°C 59% 6.0 mph ENE9.7 kmh ENE -- 30.19 in1022.4 mb 0.00 in0.0 mm 0.00 in0.0 mm 0.00 in0.0 mm
12:05 PM 85.5°F29.7°C 69.5°F20.8°C 59% 7.0 mph ENE11.3 kmh ENE -- 30.19 in1022.4 mb 0.00 in0.0 mm 0.00 in0.0 mm 0.00 in0.0 mm
12:10 PM 85.6°F29.8°C 68.7°F20.4°C 57% 12.0 mph NE19.3 kmh NE -- 30.19 in1022.4 mb 0.00 in0.0 mm 0.00 in0.0 mm 0.00 in0.0 mm
12:15 PM 85.8°F29.9°C 68.9°F20.5°C 57% 4.0 mph NNE6.4 kmh NNE -- 30.19 in1022.4 mb 0.00 in0.0 mm 0.00 in0.0 mm 0.00 in0.0 mm
12:20 PM 86.7°F30.4°C 69.7°F20.9°C 57% 8.0 mph E12.9 kmh E -- 30.19 in1022.4 mb 0.00 in0.0 mm 0.00 in0.0 mm 0.00 in0.0 mm
12:25 PM 86.5°F30.3°C 69.5°F20.8°C 57% 3.0 mph NE4.8 kmh NE -- 30.18 in1022.0 mb 0.00 in0.0 mm 0.00 in0.0 mm 0.00 in0.0 mm
12:30 PM 85.3°F29.6°C 69.8°F21.0°C 60% 6.0 mph ENE9.7 kmh ENE -- 30.18 in1022.0 mb 0.00 in0.0 mm 0.00 in0.0 mm 0.00 in0.0 mm
12:35 PM 84.6°F29.2°C 69.2°F20.7°C 60% 10.0 mph NE16.1 kmh NE -- 30.19 in1022.4 mb 0.00 in0.0 mm 0.00 in0.0 mm 0.00 in0.0 mm
12:40 PM 83.7°F28.7°C 69.3°F20.7°C 62% 8.0 mph ENE12.9 kmh ENE -- 30.19 in1022.4 mb 0.00 in0.0 mm 0.00 in0.0 mm 0.00 in0.0 mm
12:45 PM 83.5°F28.6°C 69.6°F20.9°C 63% 14.0 mph E22.5 kmh E -- 30.19 in1022.4 mb 0.00 in0.0 mm 0.00 in0.0 mm 0.00 in0.0 mm
12:50 PM 84.0°F28.9°C 70.1°F21.2°C 63% 9.0 mph ENE14.5 kmh ENE -- 30.19 in1022.4 mb 0.00 in0.0 mm 0.00 in0.0 mm 0.00 in0.0 mm
12:55 PM 83.5°F28.6°C 69.6°F20.9°C 63% 11.0 mph 17.7 kmh -- 30.19 in1022.4 mb 0.00 in0.0 mm 0.00 in0.0 mm 0.00 in0.0 mm
01:00 PM 83.7°F28.7°C 69.7°F20.9°C 63% 9.0 mph ESE14.5 kmh ESE -- 30.18 in1022.0 mb 0.00 in0.0 mm 0.00 in0.0 mm 0.00 in0.0 mm
01:05 PM 84.9°F29.4°C 70.5°F21.4°C 62% 16.0 mph NNE25.7 kmh NNE -- 30.19 in1022.4 mb 0.00 in0.0 mm 0.00 in0.0 mm 0.00 in0.0 mm
01:10 PM 84.7°F29.3°C 69.8°F21.0°C 61% 5.0 mph E8.0 kmh E -- 30.19 in1022.4 mb 0.00 in0.0 mm 0.00 in0.0 mm 0.00 in0.0 mm
01:15 PM 85.5°F29.7°C 70.0°F21.1°C 60% 14.0 mph WNW22.5 kmh WNW -- 30.18 in1022.0 mb 0.00 in0.0 mm 0.00 in0.0 mm 0.00 in0.0 mm
01:20 PM 84.4°F29.1°C 70.0°F21.1°C 62% 9.0 mph ENE14.5 kmh ENE -- 30.18 in1022.0 mb 0.00 in0.0 mm 0.00 in0.0 mm 0.00 in0.0 mm
01:25 PM 83.8°F28.8°C 69.9°F21.1°C 63% 4.0 mph NE6.4 kmh NE -- 30.18 in1022.0 mb 0.00 in0.0 mm 0.00 in0.0 mm 0.00 in0.0 mm
01:30 PM 81.9°F27.7°C 69.8°F21.0°C 67% 14.0 mph WNW22.5 kmh WNW -- 30.19 in1022.4 mb 0.00 in0.0 mm 0.00 in0.0 mm 0.00 in0.0 mm
01:35 PM 79.9°F26.6°C 70.4°F21.3°C 73% 2.0 mph NE3.2 kmh NE -- 30.19 in1022.4 mb 0.00 in0.0 mm 0.00 in0.0 mm 0.00 in0.0 mm
01:40 PM 80.4°F26.9°C 70.1°F21.2°C 71% 6.0 mph E9.7 kmh E -- 30.19 in1022.4 mb 0.00 in0.0 mm 0.00 in0.0 mm 0.00 in0.0 mm
01:45 PM 80.6°F27.0°C 70.7°F21.5°C 72% 8.0 mph ENE12.9 kmh ENE -- 30.19 in1022.4 mb 0.00 in0.0 mm 0.00 in0.0 mm 0.00 in0.0 mm
01:50 PM 79.2°F26.2°C 71.3°F21.8°C 77% 5.0 mph E8.0 kmh E -- 30.19 in1022.4 mb 0.00 in0.0 mm 0.00 in0.0 mm 0.00 in0.0 mm
01:55 PM 79.0°F26.1°C 71.5°F21.9°C 78% 11.0 mph WNW17.7 kmh WNW -- 30.19 in1022.4 mb 0.00 in0.0 mm 0.00 in0.0 mm 0.00 in0.0 mm
02:00 PM 78.4°F25.8°C 70.6°F21.4°C 77% 9.0 mph ENE14.5 kmh ENE -- 30.19 in1022.4 mb 0.00 in0.0 mm 0.00 in0.0 mm 0.00 in0.0 mm
02:05 PM 79.3°F26.3°C 70.3°F21.3°C 74% 8.0 mph E12.9 kmh E -- 30.19 in1022.4 mb 0.00 in0.0 mm 0.00 in0.0 mm 0.00 in0.0 mm
02:10 PM 78.8°F26.0°C 69.4°F20.8°C 73% 12.0 mph ENE19.3 kmh ENE -- 30.19 in1022.4 mb 0.00 in0.0 mm 0.00 in0.0 mm 0.00 in0.0 mm
02:15 PM 78.3°F25.7°C 68.9°F20.5°C 73% 5.0 mph ENE8.0 kmh ENE -- 30.19 in1022.4 mb 0.00 in0.0 mm 0.00 in0.0 mm 0.00 in0.0 mm
02:20 PM 77.7°F25.4°C 68.4°F20.2°C 73% 6.0 mph ENE9.7 kmh ENE -- 30.19 in1022.4 mb 0.00 in0.0 mm 0.00 in0.0 mm 0.00 in0.0 mm
02:25 PM 78.3°F25.7°C 68.5°F20.3°C 72% 6.0 mph E9.7 kmh E -- 30.19 in1022.4 mb 0.00 in0.0 mm 0.00 in0.0 mm 0.00 in0.0 mm
02:30 PM 78.8°F26.0°C 69.0°F20.6°C 72% 5.0 mph NE8.0 kmh NE -- 30.18 in1022.0 mb 0.00 in0.0 mm 0.00 in0.0 mm 0.00 in0.0 mm
02:35 PM 79.2°F26.2°C 70.1°F21.2°C 74% 5.0 mph ENE8.0 kmh ENE -- 30.18 in1022.0 mb 0.00 in0.0 mm 0.00 in0.0 mm 0.00 in0.0 mm
02:40 PM 78.3°F25.7°C 70.4°F21.3°C 77% 6.0 mph ENE9.7 kmh ENE -- 30.18 in1022.0 mb 0.00 in0.0 mm 0.00 in0.0 mm 0.00 in0.0 mm
02:45 PM 79.0°F26.1°C 71.5°F21.9°C 78% 4.0 mph E6.4 kmh E -- 30.18 in1022.0 mb 0.00 in0.0 mm 0.00 in0.0 mm 0.00 in0.0 mm
02:50 PM 79.5°F26.4°C 72.0°F22.2°C 78% 3.0 mph NNE4.8 kmh NNE -- 30.18 in1022.0 mb 0.00 in0.0 mm 0.00 in0.0 mm 0.00 in0.0 mm
02:55 PM 81.0°F27.2°C 72.7°F22.6°C 76% 9.0 mph ENE14.5 kmh ENE -- 30.18 in1022.0 mb 0.00 in0.0 mm 0.00 in0.0 mm 0.00 in0.0 mm
03:00 PM 80.2°F26.8°C 72.4°F22.4°C 77% 9.0 mph E14.5 kmh E -- 30.17 in1021.7 mb 0.00 in0.0 mm 0.00 in0.0 mm 0.00 in0.0 mm
03:05 PM 79.9°F26.6°C 72.4°F22.4°C 78% 11.0 mph NE17.7 kmh NE -- 30.17 in1021.7 mb 0.00 in0.0 mm 0.00 in0.0 mm 0.00 in0.0 mm
03:10 PM 80.1°F26.7°C 72.6°F22.6°C 78% 7.0 mph ENE11.3 kmh ENE -- 30.17 in1021.7 mb 0.00 in0.0 mm 0.00 in0.0 mm 0.00 in0.0 mm
03:15 PM 80.4°F26.9°C 72.5°F22.5°C 77% 4.0 mph NNE6.4 kmh NNE -- 30.17 in1021.7 mb 0.00 in0.0 mm 0.00 in0.0 mm 0.00 in0.0 mm
03:20 PM 80.4°F26.9°C 72.5°F22.5°C 77% 7.0 mph ESE11.3 kmh ESE -- 30.17 in1021.7 mb 0.00 in0.0 mm 0.00 in0.0 mm 0.00 in0.0 mm
03:25 PM 77.4°F25.2°C 71.4°F21.9°C 82% 11.0 mph ENE17.7 kmh ENE -- 30.18 in1022.0 mb 0.00 in0.0 mm 0.00 in0.0 mm 0.00 in0.0 mm
03:30 PM 75.7°F24.3°C 71.2°F21.8°C 86% 6.0 mph ESE9.7 kmh ESE -- 30.18 in1022.0 mb 0.00 in0.0 mm 0.00 in0.0 mm 0.00 in0.0 mm
03:35 PM 75.0°F23.9°C 70.9°F21.6°C 87% 5.0 mph NE8.0 kmh NE -- 30.18 in1022.0 mb 0.00 in0.0 mm 0.00 in0.0 mm 0.00 in0.0 mm
03:40 PM 75.4°F24.1°C 71.2°F21.8°C 87% 2.0 mph NE3.2 kmh NE -- 30.18 in1022.0 mb 0.00 in0.0 mm 0.00 in0.0 mm 0.00 in0.0 mm
03:45 PM 75.9°F24.4°C 71.4°F21.9°C 86% 6.0 mph ENE9.7 kmh ENE -- 30.18 in1022.0 mb 0.00 in0.0 mm 0.00 in0.0 mm 0.00 in0.0 mm
03:50 PM 76.3°F24.6°C 71.4°F21.9°C 85% 3.0 mph SE4.8 kmh SE -- 30.18 in1022.0 mb 0.00 in0.0 mm 0.00 in0.0 mm 0.00 in0.0 mm
03:55 PM 76.6°F24.8°C 71.8°F22.1°C 85% 4.0 mph ENE6.4 kmh ENE -- 30.18 in1022.0 mb 0.00 in0.0 mm 0.00 in0.0 mm 0.00 in0.0 mm
04:00 PM 76.8°F24.9°C 72.3°F22.4°C 86% 2.0 mph NE3.2 kmh NE -- 30.18 in1022.0 mb 0.00 in0.0 mm 0.00 in0.0 mm 0.00 in0.0 mm
04:05 PM 74.7°F23.7°C 71.5°F21.9°C 90% 9.0 mph E14.5 kmh E -- 30.18 in1022.0 mb 0.08 in2.0 mm 0.96 in24.4 mm 0.08 in2.0 mm
04:10 PM 73.2°F22.9°C 70.7°F21.5°C 92% 11.0 mph E17.7 kmh E -- 30.18 in1022.0 mb 0.09 in2.3 mm 0.12 in3.0 mm 0.09 in2.3 mm
04:15 PM 72.9°F22.7°C 70.4°F21.3°C 92% 8.0 mph E12.9 kmh E -- 30.18 in1022.0 mb 0.11 in2.8 mm 0.24 in6.1 mm 0.11 in2.8 mm
04:20 PM 72.9°F22.7°C 70.7°F21.5°C 93% 6.0 mph ESE9.7 kmh ESE -- 30.18 in1022.0 mb 0.12 in3.0 mm 0.12 in3.0 mm 0.12 in3.0 mm
04:25 PM 72.9°F22.7°C 70.7°F21.5°C 93% 9.0 mph SSE14.5 kmh SSE -- 30.18 in1022.0 mb 0.12 in3.0 mm 0.00 in0.0 mm 0.12 in3.0 mm
04:30 PM 72.7°F22.6°C 70.5°F21.4°C 93% 6.0 mph NE9.7 kmh NE -- 30.18 in1022.0 mb 0.14 in3.6 mm 0.24 in6.1 mm 0.14 in3.6 mm
04:35 PM 72.7°F22.6°C 70.5°F21.4°C 93% 9.0 mph ENE14.5 kmh ENE -- 30.19 in1022.4 mb 0.20 in5.1 mm 0.72 in18.3 mm 0.20 in5.1 mm
04:40 PM 72.7°F22.6°C 70.5°F21.4°C 93% 4.0 mph E6.4 kmh E -- 30.18 in1022.0 mb 0.22 in5.6 mm 0.24 in6.1 mm 0.22 in5.6 mm
04:45 PM 72.7°F22.6°C 70.5°F21.4°C 93% 2.0 mph NE3.2 kmh NE -- 30.18 in1022.0 mb 0.23 in5.8 mm 0.12 in3.0 mm 0.23 in5.8 mm
04:50 PM 73.0°F22.8°C 70.9°F21.6°C 93% 3.0 mph NE4.8 kmh NE -- 30.18 in1022.0 mb 0.23 in5.8 mm 0.00 in0.0 mm 0.23 in5.8 mm
04:55 PM 73.2°F22.9°C 71.1°F21.7°C 93% 10.0 mph ENE16.1 kmh ENE -- 30.18 in1022.0 mb 0.28 in7.1 mm 0.60 in15.2 mm 0.28 in7.1 mm
05:00 PM 73.0°F22.8°C 70.9°F21.6°C 93% 6.0 mph NE9.7 kmh NE -- 30.18 in1022.0 mb 0.28 in7.1 mm 0.00 in0.0 mm 0.28 in7.1 mm
05:05 PM 73.4°F23.0°C 71.2°F21.8°C 93% 3.0 mph NNE4.8 kmh NNE -- 30.18 in1022.0 mb 0.18 in4.6 mm 0.00 in0.0 mm 0.28 in7.1 mm
05:10 PM 73.6°F23.1°C 71.4°F21.9°C 93% 4.0 mph ESE6.4 kmh ESE -- 30.18 in1022.0 mb 0.18 in4.6 mm 0.00 in0.0 mm 0.28 in7.1 mm
05:15 PM 73.6°F23.1°C 71.4°F21.9°C 93% 6.0 mph ENE9.7 kmh ENE -- 30.18 in1022.0 mb 0.16 in4.1 mm 0.00 in0.0 mm 0.28 in7.1 mm
05:20 PM 73.8°F23.2°C 71.6°F22.0°C 93% 3.0 mph NE4.8 kmh NE -- 30.18 in1022.0 mb 0.16 in4.1 mm 0.00 in0.0 mm 0.28 in7.1 mm
05:25 PM 73.9°F23.3°C 71.8°F22.1°C 93% 2.0 mph NE3.2 kmh NE -- 30.17 in1021.7 mb 0.14 in3.6 mm 0.00 in0.0 mm 0.28 in7.1 mm
05:30 PM 74.3°F23.5°C 72.1°F22.3°C 93% 1.0 mph E1.6 kmh E -- 30.17 in1021.7 mb 0.14 in3.6 mm 0.00 in0.0 mm 0.28 in7.1 mm
05:35 PM 74.3°F23.5°C 72.1°F22.3°C 93% 4.0 mph NE6.4 kmh NE -- 30.17 in1021.7 mb 0.06 in1.5 mm 0.00 in0.0 mm 0.28 in7.1 mm
05:40 PM 74.7°F23.7°C 72.2°F22.3°C 92% 3.0 mph NNE4.8 kmh NNE -- 30.17 in1021.7 mb 0.06 in1.5 mm 0.00 in0.0 mm 0.28 in7.1 mm
05:45 PM 74.7°F23.7°C 72.2°F22.3°C 92% 3.0 mph NE4.8 kmh NE -- 30.17 in1021.7 mb 0.05 in1.3 mm 0.00 in0.0 mm 0.28 in7.1 mm
05:50 PM 74.8°F23.8°C 72.0°F22.2°C 91% 4.0 mph ENE6.4 kmh ENE -- 30.18 in1022.0 mb 0.05 in1.3 mm 0.00 in0.0 mm 0.28 in7.1 mm
05:55 PM 75.0°F23.9°C 72.2°F22.3°C 91% 7.0 mph ENE11.3 kmh ENE -- 30.17 in1021.7 mb 0.00 in0.0 mm 0.00 in0.0 mm 0.28 in7.1 mm
06:00 PM 74.8°F23.8°C 71.7°F22.1°C 90% 4.0 mph NE6.4 kmh NE -- 30.18 in1022.0 mb 0.00 in0.0 mm 0.00 in0.0 mm 0.28 in7.1 mm
06:05 PM 75.0°F23.9°C 71.9°F22.2°C 90% 4.0 mph ENE6.4 kmh ENE -- 30.18 in1022.0 mb 0.00 in0.0 mm 0.00 in0.0 mm 0.28 in7.1 mm
06:10 PM 74.8°F23.8°C 71.7°F22.1°C 90% 5.0 mph E8.0 kmh E -- 30.18 in1022.0 mb 0.00 in0.0 mm 0.00 in0.0 mm 0.28 in7.1 mm
06:15 PM 74.8°F23.8°C 71.7°F22.1°C 90% 7.0 mph ENE11.3 kmh ENE -- 30.18 in1022.0 mb 0.00 in0.0 mm 0.00 in0.0 mm 0.28 in7.1 mm
06:20 PM 74.8°F23.8°C 71.7°F22.1°C 90% 4.0 mph NE6.4 kmh NE -- 30.18 in1022.0 mb 0.00 in0.0 mm 0.00 in0.0 mm 0.28 in7.1 mm
06:25 PM 74.8°F23.8°C 71.7°F22.1°C 90% 6.0 mph ENE9.7 kmh ENE -- 30.18 in1022.0 mb 0.00 in0.0 mm 0.00 in0.0 mm 0.28 in7.1 mm
06:30 PM 74.8°F23.8°C 71.7°F22.1°C 90% 6.0 mph ESE9.7 kmh ESE -- 30.18 in1022.0 mb 0.00 in0.0 mm 0.00 in0.0 mm 0.28 in7.1 mm
06:35 PM 74.7°F23.7°C 71.5°F21.9°C 90% 7.0 mph ESE11.3 kmh ESE -- 30.18 in1022.0 mb 0.00 in0.0 mm 0.00 in0.0 mm 0.28 in7.1 mm
06:40 PM 74.7°F23.7°C 71.2°F21.8°C 89% 9.0 mph E14.5 kmh E -- 30.18 in1022.0 mb 0.00 in0.0 mm 0.00 in0.0 mm 0.28 in7.1 mm
06:45 PM 74.7°F23.7°C 70.9°F21.6°C 88% 7.0 mph E11.3 kmh E -- 30.18 in1022.0 mb 0.00 in0.0 mm 0.00 in0.0 mm 0.28 in7.1 mm
06:50 PM 74.7°F23.7°C 70.9°F21.6°C 88% 4.0 mph NNE6.4 kmh NNE -- 30.18 in1022.0 mb 0.00 in0.0 mm 0.00 in0.0 mm 0.28 in7.1 mm
06:55 PM 74.5°F23.6°C 70.7°F21.5°C 88% 3.0 mph NE4.8 kmh NE -- 30.19 in1022.4 mb 0.00 in0.0 mm 0.00 in0.0 mm 0.28 in7.1 mm
07:00 PM 74.3°F23.5°C 70.8°F21.6°C 89% 4.0 mph NE6.4 kmh NE -- 30.19 in1022.4 mb 0.00 in0.0 mm 0.00 in0.0 mm 0.28 in7.1 mm
07:05 PM 74.3°F23.5°C 70.8°F21.6°C 89% 2.0 mph NNE3.2 kmh NNE -- 30.19 in1022.4 mb 0.00 in0.0 mm 0.00 in0.0 mm 0.28 in7.1 mm
07:10 PM 74.3°F23.5°C 70.8°F21.6°C 89% 4.0 mph ENE6.4 kmh ENE -- 30.19 in1022.4 mb 0.00 in0.0 mm 0.00 in0.0 mm 0.28 in7.1 mm
07:15 PM 74.5°F23.6°C 71.0°F21.7°C 89% 4.0 mph NE6.4 kmh NE -- 30.19 in1022.4 mb 0.00 in0.0 mm 0.00 in0.0 mm 0.28 in7.1 mm
07:20 PM 74.5°F23.6°C 71.0°F21.7°C 89% 2.0 mph NNE3.2 kmh NNE -- 30.19 in1022.4 mb 0.00 in0.0 mm 0.00 in0.0 mm 0.28 in7.1 mm
07:25 PM 74.5°F23.6°C 71.0°F21.7°C 89% 3.0 mph E4.8 kmh E -- 30.19 in1022.4 mb 0.00 in0.0 mm 0.00 in0.0 mm 0.28 in7.1 mm
07:30 PM 74.7°F23.7°C 71.2°F21.8°C 89% 7.0 mph ENE11.3 kmh ENE -- 30.19 in1022.4 mb 0.00 in0.0 mm 0.00 in0.0 mm 0.28 in7.1 mm
07:35 PM 74.8°F23.8°C 71.4°F21.9°C 89% 2.0 mph NNE3.2 kmh NNE -- 30.19 in1022.4 mb 0.00 in0.0 mm 0.00 in0.0 mm 0.28 in7.1 mm
07:40 PM 74.8°F23.8°C 71.4°F21.9°C 89% 5.0 mph NNE8.0 kmh NNE -- 30.20 in1022.7 mb 0.00 in0.0 mm 0.00 in0.0 mm 0.28 in7.1 mm
07:45 PM 74.7°F23.7°C 71.2°F21.8°C 89% 4.0 mph E6.4 kmh E -- 30.20 in1022.7 mb 0.00 in0.0 mm 0.00 in0.0 mm 0.28 in7.1 mm
07:50 PM 73.4°F23.0°C 70.3°F21.3°C 90% 7.0 mph ESE11.3 kmh ESE -- 30.21 in1023.0 mb 0.00 in0.0 mm 0.00 in0.0 mm 0.28 in7.1 mm
07:55 PM 72.3°F22.4°C 69.9°F21.1°C 92% 3.0 mph ESE4.8 kmh ESE -- 30.22 in1023.4 mb 0.09 in2.3 mm 1.08 in27.4 mm 0.37 in9.4 mm
08:00 PM 71.6°F22.0°C 69.5°F20.8°C 93% 9.0 mph NE14.5 kmh NE -- 30.22 in1023.4 mb 0.16 in4.1 mm 0.08 in2.0 mm 0.44 in11.2 mm
08:05 PM 71.6°F22.0°C 69.5°F20.8°C 93% 5.0 mph SE8.0 kmh SE -- 30.22 in1023.4 mb 0.20 in5.1 mm 0.48 in12.2 mm 0.48 in12.2 mm
08:10 PM 71.8°F22.1°C 69.6°F20.9°C 93% 3.0 mph SE4.8 kmh SE -- 30.21 in1023.0 mb 0.20 in5.1 mm 0.00 in0.0 mm 0.48 in12.2 mm
08:15 PM 72.0°F22.2°C 69.8°F21.0°C 93% Calm Calm -- 30.22 in1023.4 mb 0.20 in5.1 mm 0.00 in0.0 mm 0.48 in12.2 mm
08:20 PM 72.0°F22.2°C 69.8°F21.0°C 93% Calm Calm -- 30.22 in1023.4 mb 0.20 in5.1 mm 0.00 in0.0 mm 0.48 in12.2 mm
08:25 PM 71.8°F22.1°C 69.6°F20.9°C 93% Calm Calm -- 30.22 in1023.4 mb 0.20 in5.1 mm 0.00 in0.0 mm 0.48 in12.2 mm
08:30 PM 71.8°F22.1°C 69.6°F20.9°C 93% Calm Calm -- 30.21 in1023.0 mb 0.21 in5.3 mm 0.12 in3.0 mm 0.49 in12.4 mm
08:35 PM 71.8°F22.1°C 69.6°F20.9°C 93% Calm Calm -- 30.21 in1023.0 mb 0.21 in5.3 mm 0.00 in0.0 mm 0.49 in12.4 mm
08:45 PM 71.8°F22.1°C 69.6°F20.9°C 93% Calm Calm -- 30.22 in1023.4 mb 0.20 in5.1 mm 0.00 in0.0 mm 0.49 in12.4 mm
08:55 PM 72.0°F22.2°C 69.8°F21.0°C 93% Calm Calm -- 30.22 in1023.4 mb 0.03 in0.8 mm 0.00 in0.0 mm 0.49 in12.4 mm
09:05 PM 71.8°F22.1°C 70.0°F21.1°C 94% 1.0 mph ENE1.6 kmh ENE -- 30.22 in1023.4 mb 0.01 in0.3 mm 0.00 in0.0 mm 0.49 in12.4 mm
09:10 PM 71.8°F22.1°C 70.0°F21.1°C 94% 1.0 mph NE1.6 kmh NE -- 30.22 in1023.4 mb 0.01 in0.3 mm 0.00 in0.0 mm 0.49 in12.4 mm
09:15 PM 71.8°F22.1°C 70.0°F21.1°C 94% 4.0 mph NE6.4 kmh NE -- 30.22 in1023.4 mb 0.01 in0.3 mm 0.00 in0.0 mm 0.49 in12.4 mm
09:20 PM 72.1°F22.3°C 70.0°F21.1°C 93% 7.0 mph NE11.3 kmh NE -- 30.22 in1023.4 mb 0.01 in0.3 mm 0.00 in0.0 mm 0.49 in12.4 mm
09:25 PM 72.3°F22.4°C 70.2°F21.2°C 93% 6.0 mph NE9.7 kmh NE -- 30.22 in1023.4 mb 0.00 in0.0 mm 0.00 in0.0 mm 0.49 in12.4 mm
09:30 PM 72.7°F22.6°C 70.5°F21.4°C 93% 3.0 mph ENE4.8 kmh ENE -- 30.22 in1023.4 mb 0.00 in0.0 mm 0.00 in0.0 mm 0.49 in12.4 mm
09:35 PM 72.7°F22.6°C 70.5°F21.4°C 93% 2.0 mph ESE3.2 kmh ESE -- 30.23 in1023.7 mb 0.00 in0.0 mm 0.00 in0.0 mm 0.49 in12.4 mm
09:40 PM 72.7°F22.6°C 70.5°F21.4°C 93% 2.0 mph E3.2 kmh E -- 30.22 in1023.4 mb 0.00 in0.0 mm 0.00 in0.0 mm 0.49 in12.4 mm
09:45 PM 72.7°F22.6°C 70.5°F21.4°C 93% 4.0 mph ENE6.4 kmh ENE -- 30.22 in1023.4 mb 0.00 in0.0 mm 0.00 in0.0 mm 0.49 in12.4 mm
09:50 PM 72.7°F22.6°C 70.5°F21.4°C 93% 3.0 mph E4.8 kmh E -- 30.22 in1023.4 mb 0.00 in0.0 mm 0.00 in0.0 mm 0.49 in12.4 mm
09:55 PM 72.7°F22.6°C 70.5°F21.4°C 93% 1.0 mph NE1.6 kmh NE -- 30.22 in1023.4 mb 0.00 in0.0 mm 0.00 in0.0 mm 0.49 in12.4 mm
10:00 PM 72.7°F22.6°C 70.2°F21.2°C 92% 3.0 mph ENE4.8 kmh ENE -- 30.22 in1023.4 mb 0.00 in0.0 mm 0.00 in0.0 mm 0.49 in12.4 mm
10:05 PM 72.7°F22.6°C 70.2°F21.2°C 92% 4.0 mph NE6.4 kmh NE -- 30.22 in1023.4 mb 0.00 in0.0 mm 0.00 in0.0 mm 0.49 in12.4 mm
10:10 PM 72.7°F22.6°C 70.2°F21.2°C 92% 2.0 mph NE3.2 kmh NE -- 30.22 in1023.4 mb 0.00 in0.0 mm 0.00 in0.0 mm 0.49 in12.4 mm
10:15 PM 72.7°F22.6°C 70.2°F21.2°C 92% 2.0 mph NNE3.2 kmh NNE -- 30.22 in1023.4 mb 0.00 in0.0 mm 0.00 in0.0 mm 0.49 in12.4 mm
10:20 PM 72.5°F22.5°C 70.0°F21.1°C 92% 4.0 mph NE6.4 kmh NE -- 30.22 in1023.4 mb 0.00 in0.0 mm 0.00 in0.0 mm 0.49 in12.4 mm
10:25 PM 72.5°F22.5°C 70.0°F21.1°C 92% 8.0 mph NE12.9 kmh NE -- 30.22 in1023.4 mb 0.00 in0.0 mm 0.00 in0.0 mm 0.49 in12.4 mm
10:30 PM 72.3°F22.4°C 69.9°F21.1°C 92% 7.0 mph ENE11.3 kmh ENE -- 30.22 in1023.4 mb 0.01 in0.3 mm 0.12 in3.0 mm 0.50 in12.7 mm
10:35 PM 72.7°F22.6°C 70.5°F21.4°C 93% 3.0 mph NE4.8 kmh NE -- 30.22 in1023.4 mb 0.01 in0.3 mm 0.00 in0.0 mm 0.50 in12.7 mm
10:40 PM 72.9°F22.7°C 70.7°F21.5°C 93% 2.0 mph NNW3.2 kmh NNW -- 30.22 in1023.4 mb 0.01 in0.3 mm 0.00 in0.0 mm 0.50 in12.7 mm
10:45 PM 72.9°F22.7°C 70.7°F21.5°C 93% 2.0 mph NE3.2 kmh NE -- 30.22 in1023.4 mb 0.01 in0.3 mm 0.00 in0.0 mm 0.50 in12.7 mm
10:50 PM 72.7°F22.6°C 70.5°F21.4°C 93% 6.0 mph NNE9.7 kmh NNE -- 30.22 in1023.4 mb 0.01 in0.3 mm 0.00 in0.0 mm 0.50 in12.7 mm
10:55 PM 72.5°F22.5°C 70.4°F21.3°C 93% 2.0 mph NNE3.2 kmh NNE -- 30.22 in1023.4 mb 0.01 in0.3 mm 0.00 in0.0 mm 0.50 in12.7 mm
11:00 PM 72.5°F22.5°C 70.4°F21.3°C 93% 1.0 mph NE1.6 kmh NE -- 30.22 in1023.4 mb 0.01 in0.3 mm 0.00 in0.0 mm 0.50 in12.7 mm
11:05 PM 72.5°F22.5°C 70.4°F21.3°C 93% Calm Calm -- 30.22 in1023.4 mb 0.01 in0.3 mm 0.00 in0.0 mm 0.50 in12.7 mm
11:10 PM 72.5°F22.5°C 70.4°F21.3°C 93% 1.0 mph 1.6 kmh -- 30.22 in1023.4 mb 0.01 in0.3 mm 0.00 in0.0 mm 0.50 in12.7 mm
11:15 PM 72.3°F22.4°C 70.2°F21.2°C 93% Calm Calm -- 30.21 in1023.0 mb 0.01 in0.3 mm 0.00 in0.0 mm 0.50 in12.7 mm
11:25 PM 72.3°F22.4°C 70.2°F21.2°C 93% Calm Calm -- 30.21 in1023.0 mb 0.00 in0.0 mm 0.00 in0.0 mm 0.50 in12.7 mm
11:35 PM 72.1°F22.3°C 70.0°F21.1°C 93% Calm Calm -- 30.21 in1023.0 mb 0.00 in0.0 mm 0.00 in0.0 mm 0.50 in12.7 mm
11:40 PM 72.1°F22.3°C 70.0°F21.1°C 93% Calm Calm -- 30.20 in1022.7 mb 0.00 in0.0 mm 0.00 in0.0 mm 0.50 in12.7 mm
11:45 PM 72.0°F22.2°C 69.8°F21.0°C 93% Calm Calm -- 30.20 in1022.7 mb 0.00 in0.0 mm 0.00 in0.0 mm 0.50 in12.7 mm
11:50 PM 71.6°F22.0°C 69.8°F21.0°C 94% Calm Calm -- 30.21 in1023.0 mb 0.00 in0.0 mm 0.00 in0.0 mm 0.50 in12.7 mm